createdAt,value
2018-05-15T00:00:21.938Z,77.03
2018-05-15T00:02:47.660Z,77.47
2018-05-15T00:05:13.394Z,77.32
2018-05-15T00:07:39.137Z,77.53
2018-05-15T00:10:04.900Z,77.22
2018-05-15T00:12:30.624Z,77.12
2018-05-15T00:14:56.399Z,77.49
2018-05-15T00:17:22.135Z,76.59
2018-05-15T00:19:47.936Z,76.62
2018-05-15T00:22:13.681Z,77.03
2018-05-15T00:24:39.419Z,76.54
2018-05-15T00:27:05.149Z,77.29
2018-05-15T00:29:30.911Z,77.63
2018-05-15T00:31:56.645Z,77.97
2018-05-15T00:34:22.388Z,78.06
2018-05-15T00:36:48.133Z,78.15
2018-05-15T00:39:13.880Z,77.69
2018-05-15T00:41:39.616Z,77.86
2018-05-15T00:44:05.367Z,77.48
2018-05-15T00:46:31.128Z,77.83
2018-05-15T00:48:56.866Z,77.85
2018-05-15T00:51:22.617Z,77.96
2018-05-15T00:53:48.356Z,77.66
2018-05-15T00:56:14.115Z,77.67
2018-05-15T00:58:39.851Z,78.43
2018-05-15T01:01:05.605Z,77.90
2018-05-15T01:03:31.346Z,78.11
2018-05-15T01:05:57.096Z,78.50
2018-05-15T01:08:22.841Z,78.13
2018-05-15T01:10:48.586Z,78.01
2018-05-15T01:13:14.320Z,78.35
2018-05-15T01:15:40.062Z,78.21
2018-05-15T01:18:05.803Z,78.03
2018-05-15T01:20:31.533Z,78.81
2018-05-15T01:22:57.277Z,79.02
2018-05-15T01:25:23.021Z,79.36
2018-05-15T01:27:48.742Z,78.61
2018-05-15T01:30:14.475Z,79.67
2018-05-15T01:32:40.204Z,80.23
2018-05-15T01:35:05.950Z,79.99
2018-05-15T01:37:31.689Z,81.05
2018-05-15T01:39:57.412Z,81.67
2018-05-15T01:42:23.153Z,81.66
2018-05-15T01:44:48.885Z,82.07
2018-05-15T01:47:14.629Z,80.63
2018-05-15T01:49:40.360Z,80.94
2018-05-15T01:52:06.092Z,81.87
2018-05-15T01:54:31.821Z,82.06
2018-05-15T01:56:57.563Z,81.34
2018-05-15T01:59:23.291Z,81.68
2018-05-15T02:01:49.023Z,81.98
2018-05-15T02:04:14.756Z,82.13
2018-05-15T02:06:40.504Z,81.70
2018-05-15T02:09:06.249Z,81.96
2018-05-15T02:11:31.996Z,82.01
2018-05-15T02:13:57.711Z,81.82
2018-05-15T02:16:23.465Z,82.31
2018-05-15T02:18:49.202Z,81.04
2018-05-15T02:21:14.953Z,81.60
2018-05-15T02:23:40.689Z,82.59
2018-05-15T02:26:06.425Z,82.59
2018-05-15T02:28:32.159Z,81.93
2018-05-15T02:30:57.901Z,82.46
2018-05-15T02:33:23.645Z,81.75
2018-05-15T02:35:49.388Z,84.18
2018-05-15T02:38:15.117Z,83.49
2018-05-15T02:40:40.857Z,84.41
2018-05-15T02:43:06.584Z,85.24
2018-05-15T02:45:32.309Z,84.88
2018-05-15T02:47:58.048Z,85.20
2018-05-15T02:50:23.786Z,84.23
2018-05-15T02:52:49.529Z,85.03
2018-05-15T02:55:15.268Z,86.09
2018-05-15T02:57:41.009Z,86.97
2018-05-15T03:00:06.749Z,86.80
2018-05-15T03:02:32.493Z,86.48
2018-05-15T03:04:58.219Z,87.51
2018-05-15T03:07:23.945Z,87.72
2018-05-15T03:09:49.679Z,87.34
2018-05-15T03:12:15.433Z,87.63
2018-05-15T03:14:41.157Z,87.35
2018-05-15T03:17:06.918Z,88.08
2018-05-15T03:19:32.648Z,88.20
2018-05-15T03:21:58.408Z,86.62
2018-05-15T03:24:24.155Z,86.76
2018-05-15T03:26:49.905Z,86.96
2018-05-15T03:29:15.645Z,86.88
2018-05-15T03:31:41.387Z,85.99
2018-05-15T03:34:07.145Z,86.33
2018-05-15T03:36:32.888Z,86.79
2018-05-15T03:38:58.640Z,86.85
2018-05-15T03:41:24.389Z,86.83
2018-05-15T03:43:50.137Z,87.21
2018-05-15T03:46:15.876Z,87.51
2018-05-15T03:48:41.628Z,87.38
2018-05-15T03:51:07.382Z,87.35
2018-05-15T03:53:33.123Z,87.23
2018-05-15T03:55:58.902Z,86.88
2018-05-15T03:58:24.663Z,86.78
2018-05-15T04:01:02.736Z,86.47
2018-05-15T04:03:40.837Z,85.87
2018-05-15T04:06:19.067Z,85.75
2018-05-15T04:08:44.919Z,85.05
2018-05-15T04:11:10.663Z,84.62
2018-05-15T04:13:36.338Z,84.34
2018-05-15T04:16:02.096Z,84.03
2018-05-15T04:18:27.859Z,83.83
2018-05-15T04:20:53.594Z,83.46
2018-05-15T04:23:19.361Z,83.31
2018-05-15T04:25:45.100Z,82.73
2018-05-15T04:28:10.884Z,82.77
2018-05-15T04:30:36.608Z,82.34
2018-05-15T04:33:02.364Z,82.30
2018-05-15T04:35:28.127Z,81.96
2018-05-15T04:37:53.883Z,81.71
2018-05-15T04:40:19.628Z,81.39
2018-05-15T04:42:45.388Z,81.22
2018-05-15T04:45:11.148Z,80.47
2018-05-15T04:47:36.889Z,80.43
2018-05-15T04:50:02.629Z,80.10
2018-05-15T04:52:28.371Z,79.90
2018-05-15T04:54:54.108Z,79.47
2018-05-15T04:57:19.868Z,78.78
2018-05-15T04:59:45.622Z,78.34
2018-05-15T05:02:11.370Z,77.95
2018-05-15T05:04:37.132Z,77.96
2018-05-15T05:07:02.877Z,77.42
2018-05-15T05:09:28.619Z,77.50
2018-05-15T05:11:54.367Z,76.81
2018-05-15T05:14:20.113Z,77.19
2018-05-15T05:16:45.861Z,76.84
2018-05-15T05:19:11.611Z,76.43
2018-05-15T05:21:37.339Z,76.11
2018-05-15T05:24:03.082Z,76.75
2018-05-15T05:26:28.829Z,75.89
2018-05-15T05:28:54.585Z,76.08
2018-05-15T05:31:20.328Z,76.54
2018-05-15T05:33:46.076Z,75.66
2018-05-15T05:36:11.820Z,75.01
2018-05-15T05:38:37.570Z,75.33
2018-05-15T05:41:03.286Z,75.19
2018-05-15T05:43:29.056Z,75.69
2018-05-15T05:45:54.795Z,74.71
2018-05-15T05:48:20.522Z,74.48
2018-05-15T05:50:46.263Z,74.69
2018-05-15T05:53:12.008Z,74.54
2018-05-15T05:55:37.744Z,74.40
2018-05-15T05:58:03.496Z,74.37
2018-05-15T06:00:29.266Z,74.41
2018-05-15T06:02:55.008Z,73.27
2018-05-15T06:05:20.734Z,73.29
2018-05-15T06:07:46.492Z,72.29
2018-05-15T06:10:12.227Z,72.88
2018-05-15T06:12:37.989Z,72.87
2018-05-15T06:15:03.745Z,72.44
2018-05-15T06:17:29.491Z,72.69
2018-05-15T06:19:55.244Z,72.80
2018-05-15T06:22:20.998Z,71.75
2018-05-15T06:24:46.753Z,71.96
2018-05-15T06:27:12.500Z,71.72
2018-05-15T06:29:38.255Z,72.29
2018-05-15T06:32:03.997Z,72.09
2018-05-15T06:34:29.731Z,71.76
2018-05-15T06:36:55.457Z,69.48
2018-05-15T06:39:21.200Z,71.71
2018-05-15T06:41:46.941Z,70.16
2018-05-15T06:44:12.685Z,70.50
2018-05-15T06:46:38.420Z,70.68
2018-05-15T06:49:04.168Z,70.20
2018-05-15T06:51:29.900Z,70.36
2018-05-15T06:53:55.644Z,69.33
2018-05-15T06:56:21.372Z,69.54
2018-05-15T06:58:47.121Z,69.31
2018-05-15T07:01:12.856Z,70.21
2018-05-15T07:03:38.593Z,68.55
2018-05-15T07:06:04.326Z,68.46
2018-05-15T07:08:30.084Z,68.86
2018-05-15T07:10:55.836Z,68.58
2018-05-15T07:13:21.588Z,67.44
2018-05-15T07:15:47.335Z,67.11
2018-05-15T07:18:13.080Z,67.07
2018-05-15T07:20:38.837Z,65.07
2018-05-15T07:23:04.589Z,65.72
2018-05-15T07:25:30.341Z,65.99
2018-05-15T07:27:56.072Z,64.28
2018-05-15T07:30:21.822Z,64.82
2018-05-15T07:32:47.565Z,64.13
2018-05-15T07:35:13.309Z,61.40
2018-05-15T07:37:39.060Z,64.25
2018-05-15T07:40:04.817Z,62.98
2018-05-15T07:42:30.552Z,63.11
2018-05-15T07:44:56.305Z,60.18
2018-05-15T07:47:22.048Z,62.03
2018-05-15T07:49:47.809Z,61.27
2018-05-15T07:52:13.551Z,59.86
2018-05-15T07:54:39.316Z,58.43
2018-05-15T07:57:05.072Z,57.78
2018-05-15T07:59:30.845Z,59.44
2018-05-15T08:01:56.621Z,57.37
2018-05-15T08:04:22.418Z,55.95
2018-05-15T08:06:48.280Z,59.13
2018-05-15T08:09:14.069Z,59.77
2018-05-15T08:11:39.825Z,59.63
2018-05-15T08:14:05.576Z,57.12
2018-05-15T08:16:31.324Z,57.07
2018-05-15T08:18:57.072Z,57.79
2018-05-15T08:21:22.815Z,58.81
2018-05-15T08:23:48.565Z,57.28
2018-05-15T08:26:14.324Z,56.76
2018-05-15T08:28:40.060Z,54.71
2018-05-15T08:31:05.820Z,56.72
2018-05-15T08:33:31.556Z,57.36
2018-05-15T08:35:57.291Z,56.57
2018-05-15T08:38:23.037Z,58.82
2018-05-15T08:40:48.789Z,55.92
2018-05-15T08:43:14.533Z,56.49
2018-05-15T08:45:40.280Z,57.01
2018-05-15T08:48:06.025Z,56.91
2018-05-15T08:50:31.771Z,56.03
2018-05-15T08:52:57.504Z,55.99
2018-05-15T08:55:23.256Z,55.70
2018-05-15T08:57:49.010Z,53.94
2018-05-15T09:00:14.761Z,56.27
2018-05-15T09:02:40.494Z,55.53
2018-05-15T09:05:06.267Z,52.99
2018-05-15T09:07:32.007Z,53.42
2018-05-15T09:09:57.770Z,54.40
2018-05-15T09:12:23.518Z,52.95
2018-05-15T09:14:49.308Z,51.52
2018-05-15T09:17:15.072Z,53.16
2018-05-15T09:19:40.817Z,52.22
2018-05-15T09:22:06.560Z,53.43
2018-05-15T09:24:32.316Z,54.15
2018-05-15T09:26:58.057Z,52.80
2018-05-15T09:29:23.822Z,52.37
2018-05-15T09:31:49.571Z,53.18
2018-05-15T09:34:15.319Z,50.51
2018-05-15T09:36:41.065Z,48.74
2018-05-15T09:39:07.214Z,50.57
2018-05-15T09:41:33.085Z,51.04
2018-05-15T09:43:58.836Z,49.58
2018-05-15T09:46:24.605Z,49.96
2018-05-15T09:48:50.356Z,48.31
2018-05-15T09:51:16.104Z,47.50
2018-05-15T09:53:41.893Z,48.76
2018-05-15T09:56:07.655Z,50.67
2018-05-15T09:58:33.380Z,48.05
2018-05-15T10:00:59.225Z,47.17
2018-05-15T10:03:24.972Z,47.72
2018-05-15T10:05:50.712Z,47.43
2018-05-15T10:08:16.437Z,46.38
2018-05-15T10:10:42.199Z,48.85
2018-05-15T10:13:07.999Z,47.49
2018-05-15T10:15:33.758Z,46.04
2018-05-15T10:17:59.504Z,45.68
2018-05-15T10:20:25.245Z,45.55
2018-05-15T10:22:50.979Z,45.98
2018-05-15T10:25:16.720Z,43.82
2018-05-15T10:27:42.476Z,43.88
2018-05-15T10:30:08.368Z,44.82
2018-05-15T10:32:34.117Z,41.77
2018-05-15T10:34:59.855Z,41.73
2018-05-15T10:37:25.685Z,43.41
2018-05-15T10:39:51.335Z,42.34
2018-05-15T10:42:17.084Z,43.23
2018-05-15T10:44:42.819Z,42.95
2018-05-15T10:47:08.577Z,42.45
2018-05-15T10:49:34.312Z,42.20
2018-05-15T10:52:00.057Z,42.25
2018-05-15T10:54:25.833Z,41.35
2018-05-15T10:56:51.580Z,40.75
2018-05-15T10:59:17.316Z,40.86
2018-05-15T11:01:43.365Z,40.41
2018-05-15T11:04:08.808Z,41.31
2018-05-15T11:06:34.562Z,42.88
2018-05-15T11:09:00.301Z,41.83
2018-05-15T11:11:26.070Z,40.96
2018-05-15T11:13:51.818Z,42.80
2018-05-15T11:16:17.597Z,40.50
2018-05-15T11:18:43.443Z,40.79
2018-05-15T11:21:21.657Z,41.13
2018-05-15T11:23:59.865Z,40.35
2018-05-15T11:26:25.621Z,41.46
2018-05-15T11:28:51.376Z,41.12
2018-05-15T11:31:17.214Z,40.68
2018-05-15T11:33:42.876Z,39.04
2018-05-15T11:36:08.622Z,40.29
2018-05-15T11:38:34.381Z,41.04
2018-05-15T11:41:00.117Z,40.01
2018-05-15T11:43:25.886Z,40.00
2018-05-15T11:45:51.626Z,40.89
2018-05-15T11:48:18.017Z,40.10
2018-05-15T11:50:44.316Z,38.53
2018-05-15T11:53:09.807Z,37.58
2018-05-15T11:55:35.296Z,38.34
2018-05-15T11:58:00.464Z,38.29
2018-05-15T12:00:26.163Z,38.56
2018-05-15T12:02:51.909Z,35.69
2018-05-15T12:05:17.661Z,34.34
2018-05-15T12:07:43.420Z,37.96
2018-05-15T12:10:09.166Z,38.66
2018-05-15T12:12:34.920Z,39.02
2018-05-15T12:15:00.693Z,37.75
2018-05-15T12:17:26.444Z,36.84
2018-05-15T12:19:52.185Z,32.63
2018-05-15T12:22:17.953Z,33.54
2018-05-15T12:24:43.697Z,36.35
2018-05-15T12:27:09.452Z,34.04
2018-05-15T12:29:35.193Z,34.65
2018-05-15T12:32:00.940Z,36.75
2018-05-15T12:34:26.669Z,34.75
2018-05-15T12:36:52.411Z,33.98
2018-05-15T12:39:18.170Z,34.30
2018-05-15T12:41:43.960Z,36.14
2018-05-15T12:44:09.719Z,35.13
2018-05-15T12:46:35.532Z,35.82
2018-05-15T12:49:01.339Z,35.69
2018-05-15T12:51:27.075Z,35.35
2018-05-15T12:53:52.841Z,35.56
2018-05-15T12:56:18.585Z,34.36
2018-05-15T12:58:44.344Z,36.88
2018-05-15T13:01:10.086Z,36.29
2018-05-15T13:03:35.841Z,34.44
2018-05-15T13:06:01.615Z,34.53
2018-05-15T13:08:27.365Z,34.52
2018-05-15T13:10:53.115Z,36.85
2018-05-15T13:13:18.856Z,37.91
2018-05-15T13:15:44.600Z,38.42
2018-05-15T13:18:10.332Z,39.44
2018-05-15T13:20:36.072Z,37.38
2018-05-15T13:23:01.824Z,36.07
2018-05-15T13:25:27.566Z,35.64
2018-05-15T13:27:53.304Z,35.02
2018-05-15T13:30:19.065Z,35.25
2018-05-15T13:32:44.817Z,35.33
2018-05-15T13:35:10.569Z,35.22
2018-05-15T13:37:36.312Z,34.15
2018-05-15T13:40:02.062Z,34.30
2018-05-15T13:42:27.821Z,34.12
2018-05-15T13:44:53.553Z,34.66
2018-05-15T13:47:19.297Z,35.01
2018-05-15T13:49:45.056Z,33.28
2018-05-15T13:52:10.796Z,32.71
2018-05-15T13:54:36.555Z,32.21
2018-05-15T13:57:02.298Z,31.89
2018-05-15T13:59:28.149Z,32.42
2018-05-15T14:01:53.795Z,31.69
2018-05-15T14:04:19.554Z,32.25
2018-05-15T14:06:45.293Z,32.98
2018-05-15T14:09:11.046Z,31.24
2018-05-15T14:11:36.789Z,30.59
2018-05-15T14:14:02.553Z,31.14
2018-05-15T14:16:28.301Z,30.46
2018-05-15T14:18:54.056Z,29.69
2018-05-15T14:21:19.814Z,29.85
2018-05-15T14:23:45.582Z,31.46
2018-05-15T14:26:11.319Z,30.81
2018-05-15T14:28:37.073Z,31.13
2018-05-15T14:31:02.807Z,30.54
2018-05-15T14:33:28.557Z,31.60
2018-05-15T14:35:54.287Z,32.33
2018-05-15T14:38:20.036Z,31.56
2018-05-15T14:40:45.772Z,31.07
2018-05-15T14:43:17.632Z,32.96
2018-05-15T14:45:43.353Z,33.66
2018-05-15T14:48:09.109Z,32.51
2018-05-15T14:50:47.055Z,32.63
2018-05-15T14:53:12.800Z,31.51
2018-05-15T14:55:38.574Z,31.48
2018-05-15T14:58:04.301Z,31.87
2018-05-15T15:00:30.057Z,31.12
2018-05-15T15:02:55.796Z,31.67
2018-05-15T15:05:21.560Z,31.49
2018-05-15T15:07:47.319Z,31.81
2018-05-15T15:10:13.074Z,31.35
2018-05-15T15:12:38.813Z,29.50
2018-05-15T15:15:04.577Z,29.56
2018-05-15T15:17:30.394Z,30.55
2018-05-15T15:19:56.076Z,30.62
2018-05-15T15:22:21.820Z,31.21
2018-05-15T15:24:47.585Z,31.99
2018-05-15T15:27:13.329Z,32.44
2018-05-15T15:29:39.092Z,34.27
2018-05-15T15:32:05.629Z,35.29
2018-05-15T15:34:31.381Z,36.71
2018-05-15T15:36:57.120Z,37.19
2018-05-15T15:39:22.876Z,37.70
2018-05-15T15:41:48.625Z,37.92
2018-05-15T15:44:14.373Z,37.51
2018-05-15T15:46:40.129Z,38.28
2018-05-15T15:49:05.889Z,39.10
2018-05-15T15:51:31.640Z,39.10
2018-05-15T15:53:57.392Z,38.35
2018-05-15T15:56:23.147Z,38.90
2018-05-15T15:58:48.900Z,39.51
2018-05-15T16:01:14.644Z,40.24
2018-05-15T16:03:40.404Z,40.93
2018-05-15T16:06:06.148Z,41.54
2018-05-15T16:08:31.889Z,41.45
2018-05-15T16:10:57.651Z,40.86
2018-05-15T16:13:23.405Z,40.30
2018-05-15T16:15:49.161Z,40.51
2018-05-15T16:18:14.905Z,40.17
2018-05-15T16:20:40.653Z,40.71
2018-05-15T16:23:06.418Z,40.72
2018-05-15T16:25:32.209Z,40.50
2018-05-15T16:27:58.001Z,40.44
2018-05-15T16:30:23.748Z,40.61
2018-05-15T16:32:49.485Z,40.16
2018-05-15T16:35:15.244Z,40.81
2018-05-15T16:37:41.062Z,41.12
2018-05-15T16:40:06.757Z,41.32
2018-05-15T16:42:32.505Z,41.40
2018-05-15T16:44:58.268Z,41.95
2018-05-15T16:47:24.008Z,42.29
2018-05-15T16:49:49.761Z,42.20
2018-05-15T16:52:15.502Z,41.85
2018-05-15T16:54:41.266Z,42.38
2018-05-15T16:57:07.016Z,41.90
2018-05-15T16:59:32.760Z,41.56
2018-05-15T17:01:58.497Z,42.41
2018-05-15T17:04:24.256Z,42.91
2018-05-15T17:06:49.998Z,43.45
2018-05-15T17:09:15.747Z,43.10
2018-05-15T17:11:41.519Z,42.37
2018-05-15T17:14:08.396Z,41.77
2018-05-15T17:16:35.547Z,43.04
2018-05-15T17:19:01.452Z,42.15
2018-05-15T17:21:29.090Z,41.91
2018-05-15T17:23:54.829Z,41.74
2018-05-15T17:26:20.677Z,41.11
2018-05-15T17:28:46.442Z,41.10
2018-05-15T17:31:12.206Z,40.61
2018-05-15T17:33:37.945Z,40.96
2018-05-15T17:36:03.701Z,41.32
2018-05-15T17:38:29.444Z,40.64
2018-05-15T17:40:55.256Z,41.31
2018-05-15T17:43:20.943Z,41.35
2018-05-15T17:45:46.703Z,40.80
2018-05-15T17:48:12.468Z,41.82
2018-05-15T17:50:38.245Z,41.34
2018-05-15T17:53:04.076Z,40.83
2018-05-15T17:55:29.870Z,40.60
2018-05-15T17:57:55.807Z,41.60
2018-05-15T18:00:21.728Z,40.65
2018-05-15T18:02:47.651Z,40.39
2018-05-15T18:05:13.434Z,40.23
2018-05-15T18:07:39.238Z,40.17
2018-05-15T18:10:05.085Z,40.47
2018-05-15T18:12:30.812Z,40.81
2018-05-15T18:14:56.595Z,40.96
2018-05-15T18:17:22.332Z,40.86
2018-05-15T18:19:48.080Z,41.09
2018-05-15T18:22:13.869Z,41.51
2018-05-15T18:24:39.613Z,41.71
2018-05-15T18:27:05.363Z,41.54
2018-05-15T18:29:31.095Z,41.84
2018-05-15T18:31:56.841Z,41.56
2018-05-15T18:34:22.588Z,42.21
2018-05-15T18:36:48.333Z,41.83
2018-05-15T18:39:14.069Z,41.61
2018-05-15T18:41:39.828Z,41.12
2018-05-15T18:44:05.559Z,41.77
2018-05-15T18:46:31.322Z,41.96
2018-05-15T18:48:57.242Z,42.27
2018-05-15T18:51:22.992Z,42.45
2018-05-15T18:53:48.720Z,42.65
2018-05-15T18:56:14.477Z,42.59
2018-05-15T18:58:40.221Z,43.19
2018-05-15T19:01:05.974Z,43.08
2018-05-15T19:03:31.704Z,43.49
2018-05-15T19:05:57.428Z,43.69
2018-05-15T19:08:23.177Z,43.96
2018-05-15T19:10:48.952Z,44.67
2018-05-15T19:13:14.724Z,45.06
2018-05-15T19:15:40.500Z,45.07
2018-05-15T19:18:06.260Z,45.62
2018-05-15T19:20:32.025Z,45.85
2018-05-15T19:22:57.775Z,46.48
2018-05-15T19:25:23.508Z,47.00
2018-05-15T19:27:49.300Z,47.61
2018-05-15T19:30:15.077Z,47.77
2018-05-15T19:32:40.853Z,48.22
2018-05-15T19:35:06.706Z,48.42
2018-05-15T19:37:32.541Z,48.77
2018-05-15T19:39:58.297Z,48.94
2018-05-15T19:42:24.046Z,49.09
2018-05-15T19:44:49.785Z,48.63
2018-05-15T19:47:15.552Z,48.71
2018-05-15T19:49:41.298Z,48.73
2018-05-15T19:52:07.053Z,49.30
2018-05-15T19:54:32.788Z,49.57
2018-05-15T19:56:58.540Z,49.58
2018-05-15T19:59:24.275Z,49.82
2018-05-15T20:01:50.040Z,49.96
2018-05-15T20:04:15.801Z,50.17
2018-05-15T20:06:41.548Z,50.48
2018-05-15T20:09:07.347Z,50.31
2018-05-15T20:11:33.122Z,50.74
2018-05-15T20:13:58.848Z,50.78
2018-05-15T20:16:24.636Z,50.56
2018-05-15T20:18:50.637Z,50.97
2018-05-15T20:21:16.413Z,51.43
2018-05-15T20:23:42.223Z,50.95
2018-05-15T20:26:07.988Z,51.23
2018-05-15T20:28:33.803Z,51.10
2018-05-15T20:30:59.564Z,50.70
2018-05-15T20:33:25.341Z,50.85
2018-05-15T20:35:51.117Z,51.30
2018-05-15T20:38:16.866Z,51.53
2018-05-15T20:40:42.613Z,51.55
2018-05-15T20:43:09.023Z,51.93
2018-05-15T20:45:34.800Z,52.59
2018-05-15T20:48:00.572Z,53.22
2018-05-15T20:50:26.983Z,53.52
2018-05-15T20:52:52.756Z,54.05
2018-05-15T20:55:18.499Z,54.45
2018-05-15T20:57:44.261Z,54.66
2018-05-15T21:00:09.993Z,54.76
2018-05-15T21:02:35.753Z,54.75
2018-05-15T21:05:02.030Z,55.04
2018-05-15T21:07:27.796Z,55.47
2018-05-15T21:09:54.794Z,55.55
2018-05-15T21:12:20.566Z,55.96
2018-05-15T21:14:46.440Z,56.10
2018-05-15T21:17:12.208Z,56.12
2018-05-15T21:19:38.937Z,56.78
2018-05-15T21:22:04.700Z,57.16
2018-05-15T21:24:30.906Z,57.60
2018-05-15T21:26:56.667Z,58.04
2018-05-15T21:29:22.459Z,58.38
2018-05-15T21:31:48.800Z,58.66
2018-05-15T21:34:14.550Z,59.00
2018-05-15T21:36:40.326Z,59.63
2018-05-15T21:39:06.055Z,59.78
2018-05-15T21:41:31.804Z,60.02
2018-05-15T21:43:57.550Z,60.13
2018-05-15T21:46:23.289Z,60.01
2018-05-15T21:48:49.032Z,59.97
2018-05-15T21:51:14.763Z,60.35
2018-05-15T21:53:40.521Z,59.98
2018-05-15T21:56:06.275Z,60.67
2018-05-15T21:58:32.021Z,60.58
2018-05-15T22:00:57.765Z,60.38
2018-05-15T22:03:23.515Z,60.44
2018-05-15T22:05:49.261Z,60.49
2018-05-15T22:08:15.025Z,60.55
2018-05-15T22:10:40.865Z,60.63
2018-05-15T22:13:18.921Z,60.62
2018-05-15T22:15:57.187Z,60.81
2018-05-15T22:18:35.491Z,60.61
2018-05-15T22:21:13.744Z,60.65
2018-05-15T22:23:39.380Z,61.02
2018-05-15T22:26:05.115Z,61.43
2018-05-15T22:28:30.856Z,61.95
2018-05-15T22:30:56.594Z,62.53
2018-05-15T22:33:22.336Z,62.81
2018-05-15T22:35:48.076Z,62.84
2018-05-15T22:38:13.812Z,63.06
2018-05-15T22:40:39.543Z,63.11
2018-05-15T22:43:05.305Z,63.24
2018-05-15T22:45:31.055Z,63.30
2018-05-15T22:47:56.792Z,63.42
2018-05-15T22:50:22.520Z,63.56
2018-05-15T22:52:48.270Z,63.32
2018-05-15T22:55:14.000Z,63.31
2018-05-15T22:57:39.755Z,63.35
2018-05-15T23:00:05.509Z,63.53
2018-05-15T23:02:31.245Z,63.14
2018-05-15T23:04:56.998Z,63.09
2018-05-15T23:07:22.723Z,63.19
2018-05-15T23:09:48.464Z,62.99
2018-05-15T23:12:14.208Z,63.19
2018-05-15T23:14:39.972Z,63.51
2018-05-15T23:17:05.709Z,63.66
2018-05-15T23:19:31.469Z,63.65
2018-05-15T23:21:57.209Z,63.74
2018-05-15T23:24:22.964Z,63.94
2018-05-15T23:26:48.711Z,64.08
2018-05-15T23:29:14.464Z,64.41
2018-05-15T23:31:40.207Z,64.42
2018-05-15T23:34:05.952Z,64.50
2018-05-15T23:36:31.682Z,65.00
2018-05-15T23:38:57.439Z,64.87
2018-05-15T23:41:23.184Z,64.74
2018-05-15T23:43:48.926Z,64.97
2018-05-15T23:46:14.671Z,64.95
2018-05-15T23:48:40.415Z,65.35
2018-05-15T23:51:06.159Z,65.34
2018-05-15T23:53:31.909Z,65.60
2018-05-15T23:55:57.645Z,65.67
2018-05-15T23:58:23.398Z,65.84
